KABY/ABY METAR and TAF weather

Enter ICAO airport designator
Station Type Date Time Source
KABY METAR 2018/04/20 07:53 UTC NOAA

KABY 200753Z AUTO 01006KT 10SM CLR 12/02 A3017 RMK AO2 SLP216 T01170017


Station Type Date Time Source
KABY Decoded METAR 2018/04/20 07:53 UTC NOAA

ALBANY SOUTHWEST GEORGIA, GA, United States (KABY) 31-32N 084-12W 58M
Apr 20, 2018 - 03:53 AM EDT / 2018.04.20 0753 UTC
Wind: from the N (010 degrees) at 7 MPH (6 KT):0
Visibility: 10 mile(s):0
Sky conditions: clear
Temperature: 53.1 F (11.7 C)
Dew Point: 35.1 F (1.7 C)
Relative Humidity: 50%
Pressure (altimeter): 30.17 in. Hg (1021 hPa)
ob: KABY 200753Z AUTO 01006KT 10SM CLR 12/02 A3017 RMK AO2 SLP216 T01170017
cycle: 8

Station Type Date Time Source
KABY TAF 2018/04/20 06:28 UTC NOAA

TAF KABY 200526Z 2006/2106 01009KT P6SM BKN250
FM201400 06013G18KT P6SM SKC
FM210000 06006KT P6SM SCT040


Example: see airport list